sensor_id;sensor_type;location;lat;lon;timestamp;P1;durP1;ratioP1;P2;durP2;ratioP2
20629;SDS011;17386;43.846;25.950;2023-08-06T00:00:39;12.88;;;6.88;;
20629;SDS011;17386;43.846;25.950;2023-08-06T00:03:05;8.82;;;6.78;;
20629;SDS011;17386;43.846;25.950;2023-08-06T00:05:30;9.57;;;6.95;;
20629;SDS011;17386;43.846;25.950;2023-08-06T00:07:56;9.52;;;6.78;;
20629;SDS011;17386;43.846;25.950;2023-08-06T00:10:21;12.00;;;6.88;;
20629;SDS011;17386;43.846;25.950;2023-08-06T00:12:46;10.77;;;7.47;;
20629;SDS011;17386;43.846;25.950;2023-08-06T00:15:12;12.73;;;7.60;;
20629;SDS011;17386;43.846;25.950;2023-08-06T00:17:38;9.20;;;7.30;;
20629;SDS011;17386;43.846;25.950;2023-08-06T00:20:05;15.63;;;7.95;;
20629;SDS011;17386;43.846;25.950;2023-08-06T00:22:35;9.10;;;7.43;;
20629;SDS011;17386;43.846;25.950;2023-08-06T00:25:03;12.45;;;6.45;;
20629;SDS011;17386;43.846;25.950;2023-08-06T00:27:31;10.88;;;7.78;;
20629;SDS011;17386;43.846;25.950;2023-08-06T00:30:00;10.90;;;7.22;;
20629;SDS011;17386;43.846;25.950;2023-08-06T00:32:26;10.68;;;6.90;;
20629;SDS011;17386;43.846;25.950;2023-08-06T00:34:51;9.90;;;7.35;;
20629;SDS011;17386;43.846;25.950;2023-08-06T00:37:20;11.57;;;7.43;;
20629;SDS011;17386;43.846;25.950;2023-08-06T00:39:45;11.60;;;7.47;;
20629;SDS011;17386;43.846;25.950;2023-08-06T00:42:11;13.45;;;7.60;;
20629;SDS011;17386;43.846;25.950;2023-08-06T00:44:37;10.68;;;7.20;;
20629;SDS011;17386;43.846;25.950;2023-08-06T00:47:04;10.95;;;7.32;;
20629;SDS011;17386;43.846;25.950;2023-08-06T00:49:32;11.13;;;7.82;;
20629;SDS011;17386;43.846;25.950;2023-08-06T00:52:00;13.00;;;8.32;;
20629;SDS011;17386;43.846;25.950;2023-08-06T00:54:27;11.98;;;8.05;;
20629;SDS011;17386;43.846;25.950;2023-08-06T00:56:53;13.85;;;8.10;;
20629;SDS011;17386;43.846;25.950;2023-08-06T00:59:21;13.02;;;7.95;;
20629;SDS011;17386;43.846;25.950;2023-08-06T01:01:46;12.48;;;8.23;;
20629;SDS011;17386;43.846;25.950;2023-08-06T01:04:12;11.40;;;8.27;;
20629;SDS011;17386;43.846;25.950;2023-08-06T01:06:45;16.15;;;8.13;;
20629;SDS011;17386;43.846;25.950;2023-08-06T01:17:44;16.48;;;8.32;;
20629;SDS011;17386;43.846;25.950;2023-08-06T01:22:37;11.82;;;7.22;;
20629;SDS011;17386;43.846;25.950;2023-08-06T01:25:02;11.77;;;8.07;;
20629;SDS011;17386;43.846;25.950;2023-08-06T01:30:12;9.35;;;7.32;;
20629;SDS011;17386;43.846;25.950;2023-08-06T01:32:43;11.82;;;8.00;;
20629;SDS011;17386;43.846;25.950;2023-08-06T01:35:13;12.27;;;7.07;;
20629;SDS011;17386;43.846;25.950;2023-08-06T01:37:42;11.85;;;7.13;;
20629;SDS011;17386;43.846;25.950;2023-08-06T01:40:12;12.90;;;7.72;;
20629;SDS011;17386;43.846;25.950;2023-08-06T01:42:40;10.20;;;7.78;;
20629;SDS011;17386;43.846;25.950;2023-08-06T01:45:07;9.77;;;7.45;;
20629;SDS011;17386;43.846;25.950;2023-08-06T01:47:34;10.85;;;8.18;;
20629;SDS011;17386;43.846;25.950;2023-08-06T01:50:02;9.68;;;7.40;;
20629;SDS011;17386;43.846;25.950;2023-08-06T01:52:29;13.85;;;7.38;;
20629;SDS011;17386;43.846;25.950;2023-08-06T01:54:56;11.50;;;7.43;;
20629;SDS011;17386;43.846;25.950;2023-08-06T01:57:22;11.07;;;6.88;;
20629;SDS011;17386;43.846;25.950;2023-08-06T01:59:50;9.85;;;6.35;;
20629;SDS011;17386;43.846;25.950;2023-08-06T02:02:16;8.77;;;5.95;;
20629;SDS011;17386;43.846;25.950;2023-08-06T02:04:42;8.82;;;5.97;;
20629;SDS011;17386;43.846;25.950;2023-08-06T02:07:07;9.00;;;6.15;;
20629;SDS011;17386;43.846;25.950;2023-08-06T02:09:34;11.30;;;6.15;;
20629;SDS011;17386;43.846;25.950;2023-08-06T02:12:00;10.73;;;6.32;;
20629;SDS011;17386;43.846;25.950;2023-08-06T02:14:27;7.65;;;5.40;;
20629;SDS011;17386;43.846;25.950;2023-08-06T02:16:54;7.35;;;4.90;;
20629;SDS011;17386;43.846;25.950;2023-08-06T02:19:20;7.50;;;4.90;;
20629;SDS011;17386;43.846;25.950;2023-08-06T02:21:47;8.60;;;4.15;;
20629;SDS011;17386;43.846;25.950;2023-08-06T02:24:14;7.30;;;4.50;;
20629;SDS011;17386;43.846;25.950;2023-08-06T02:26:40;5.20;;;3.15;;
20629;SDS011;17386;43.846;25.950;2023-08-06T02:29:07;7.40;;;3.08;;
20629;SDS011;17386;43.846;25.950;2023-08-06T02:31:33;9.57;;;3.03;;
20629;SDS011;17386;43.846;25.950;2023-08-06T02:34:00;7.65;;;3.10;;
20629;SDS011;17386;43.846;25.950;2023-08-06T02:36:27;4.75;;;3.00;;
20629;SDS011;17386;43.846;25.950;2023-08-06T02:38:55;5.72;;;3.13;;
20629;SDS011;17386;43.846;25.950;2023-08-06T02:41:22;5.47;;;3.20;;
20629;SDS011;17386;43.846;25.950;2023-08-06T02:43:47;9.25;;;3.05;;
20629;SDS011;17386;43.846;25.950;2023-08-06T02:46:13;5.60;;;2.80;;
20629;SDS011;17386;43.846;25.950;2023-08-06T02:48:40;6.30;;;2.65;;
20629;SDS011;17386;43.846;25.950;2023-08-06T02:51:06;3.80;;;2.22;;
20629;SDS011;17386;43.846;25.950;2023-08-06T02:53:32;4.03;;;2.15;;
20629;SDS011;17386;43.846;25.950;2023-08-06T02:55:57;4.20;;;2.22;;
20629;SDS011;17386;43.846;25.950;2023-08-06T02:58:25;5.45;;;2.50;;
20629;SDS011;17386;43.846;25.950;2023-08-06T03:01:05;4.57;;;2.47;;
20629;SDS011;17386;43.846;25.950;2023-08-06T03:03:33;3.70;;;2.17;;
20629;SDS011;17386;43.846;25.950;2023-08-06T03:06:00;27.52;;;3.10;;
20629;SDS011;17386;43.846;25.950;2023-08-06T03:08:27;7.05;;;2.22;;
20629;SDS011;17386;43.846;25.950;2023-08-06T03:10:55;5.40;;;2.30;;
20629;SDS011;17386;43.846;25.950;2023-08-06T03:13:21;6.25;;;2.30;;
20629;SDS011;17386;43.846;25.950;2023-08-06T03:15:57;4.80;;;2.17;;
20629;SDS011;17386;43.846;25.950;2023-08-06T03:18:26;4.28;;;2.17;;
20629;SDS011;17386;43.846;25.950;2023-08-06T03:20:52;5.28;;;2.10;;
20629;SDS011;17386;43.846;25.950;2023-08-06T03:23:20;4.68;;;2.05;;
20629;SDS011;17386;43.846;25.950;2023-08-06T03:25:50;6.60;;;2.50;;
20629;SDS011;17386;43.846;25.950;2023-08-06T03:28:17;2.78;;;1.83;;
20629;SDS011;17386;43.846;25.950;2023-08-06T03:30:44;5.90;;;1.95;;
20629;SDS011;17386;43.846;25.950;2023-08-06T03:33:10;3.33;;;1.85;;
20629;SDS011;17386;43.846;25.950;2023-08-06T03:35:37;5.03;;;1.77;;
20629;SDS011;17386;43.846;25.950;2023-08-06T03:38:04;4.35;;;2.25;;
20629;SDS011;17386;43.846;25.950;2023-08-06T03:40:31;7.60;;;1.95;;
20629;SDS011;17386;43.846;25.950;2023-08-06T03:42:58;3.53;;;1.90;;
20629;SDS011;17386;43.846;25.950;2023-08-06T03:45:25;4.65;;;2.25;;
20629;SDS011;17386;43.846;25.950;2023-08-06T03:47:52;2.97;;;1.88;;
20629;SDS011;17386;43.846;25.950;2023-08-06T03:50:18;10.32;;;2.85;;
20629;SDS011;17386;43.846;25.950;2023-08-06T03:52:45;4.32;;;1.67;;
20629;SDS011;17386;43.846;25.950;2023-08-06T03:55:12;5.30;;;2.42;;
20629;SDS011;17386;43.846;25.950;2023-08-06T03:57:39;3.38;;;1.70;;
20629;SDS011;17386;43.846;25.950;2023-08-06T04:00:06;4.50;;;1.92;;
20629;SDS011;17386;43.846;25.950;2023-08-06T04:02:34;4.38;;;1.98;;
20629;SDS011;17386;43.846;25.950;2023-08-06T04:05:01;3.00;;;1.73;;
20629;SDS011;17386;43.846;25.950;2023-08-06T04:07:28;3.63;;;1.85;;
20629;SDS011;17386;43.846;25.950;2023-08-06T04:09:58;3.47;;;1.70;;
20629;SDS011;17386;43.846;25.950;2023-08-06T04:12:26;3.22;;;1.98;;
20629;SDS011;17386;43.846;25.950;2023-08-06T04:17:20;4.97;;;1.92;;
20629;SDS011;17386;43.846;25.950;2023-08-06T04:19:53;18.48;;;3.13;;
20629;SDS011;17386;43.846;25.950;2023-08-06T04:22:21;3.55;;;2.10;;
20629;SDS011;17386;43.846;25.950;2023-08-06T04:24:47;3.00;;;1.80;;
20629;SDS011;17386;43.846;25.950;2023-08-06T04:27:14;3.92;;;2.05;;
20629;SDS011;17386;43.846;25.950;2023-08-06T04:29:42;6.38;;;2.05;;
20629;SDS011;17386;43.846;25.950;2023-08-06T04:34:36;8.00;;;1.98;;
20629;SDS011;17386;43.846;25.950;2023-08-06T04:37:04;4.35;;;1.90;;
20629;SDS011;17386;43.846;25.950;2023-08-06T04:39:31;3.55;;;1.80;;
20629;SDS011;17386;43.846;25.950;2023-08-06T04:41:58;3.33;;;2.00;;
20629;SDS011;17386;43.846;25.950;2023-08-06T04:44:25;3.83;;;1.83;;
20629;SDS011;17386;43.846;25.950;2023-08-06T04:46:52;4.10;;;2.08;;
20629;SDS011;17386;43.846;25.950;2023-08-06T04:49:22;3.28;;;1.95;;
20629;SDS011;17386;43.846;25.950;2023-08-06T04:51:49;4.13;;;1.80;;
20629;SDS011;17386;43.846;25.950;2023-08-06T04:54:15;5.55;;;1.83;;
20629;SDS011;17386;43.846;25.950;2023-08-06T04:56:42;5.82;;;1.88;;
20629;SDS011;17386;43.846;25.950;2023-08-06T04:59:09;2.72;;;1.67;;
20629;SDS011;17386;43.846;25.950;2023-08-06T05:01:35;3.15;;;1.60;;
20629;SDS011;17386;43.846;25.950;2023-08-06T05:04:02;4.03;;;1.83;;
20629;SDS011;17386;43.846;25.950;2023-08-06T05:06:29;5.07;;;2.10;;
20629;SDS011;17386;43.846;25.950;2023-08-06T05:08:54;2.78;;;1.65;;
20629;SDS011;17386;43.846;25.950;2023-08-06T05:11:21;3.85;;;2.03;;
20629;SDS011;17386;43.846;25.950;2023-08-06T05:13:46;3.13;;;1.92;;
20629;SDS011;17386;43.846;25.950;2023-08-06T05:16:12;11.25;;;2.30;;
20629;SDS011;17386;43.846;25.950;2023-08-06T05:18:37;3.17;;;1.75;;
20629;SDS011;17386;43.846;25.950;2023-08-06T05:21:03;2.20;;;1.60;;
20629;SDS011;17386;43.846;25.950;2023-08-06T05:23:30;3.75;;;2.00;;
20629;SDS011;17386;43.846;25.950;2023-08-06T05:25:55;4.40;;;1.73;;
20629;SDS011;17386;43.846;25.950;2023-08-06T05:28:21;3.90;;;1.58;;
20629;SDS011;17386;43.846;25.950;2023-08-06T05:30:46;3.60;;;1.55;;
20629;SDS011;17386;43.846;25.950;2023-08-06T05:33:11;2.50;;;1.52;;
20629;SDS011;17386;43.846;25.950;2023-08-06T05:35:37;3.20;;;1.73;;
20629;SDS011;17386;43.846;25.950;2023-08-06T05:38:03;2.45;;;1.60;;
20629;SDS011;17386;43.846;25.950;2023-08-06T05:40:30;3.67;;;1.77;;
20629;SDS011;17386;43.846;25.950;2023-08-06T05:42:59;2.55;;;1.55;;
20629;SDS011;17386;43.846;25.950;2023-08-06T05:45:25;4.10;;;1.73;;
20629;SDS011;17386;43.846;25.950;2023-08-06T05:47:50;3.15;;;1.80;;
20629;SDS011;17386;43.846;25.950;2023-08-06T05:50:17;3.80;;;1.80;;
20629;SDS011;17386;43.846;25.950;2023-08-06T05:52:44;3.97;;;1.70;;
20629;SDS011;17386;43.846;25.950;2023-08-06T05:55:10;2.72;;;1.60;;
20629;SDS011;17386;43.846;25.950;2023-08-06T05:57:37;4.85;;;1.60;;
20629;SDS011;17386;43.846;25.950;2023-08-06T06:00:04;3.65;;;1.42;;
20629;SDS011;17386;43.846;25.950;2023-08-06T06:02:32;3.60;;;1.50;;
20629;SDS011;17386;43.846;25.950;2023-08-06T06:04:57;3.67;;;1.83;;
20629;SDS011;17386;43.846;25.950;2023-08-06T06:07:24;5.22;;;1.85;;
20629;SDS011;17386;43.846;25.950;2023-08-06T06:09:51;4.07;;;1.77;;
20629;SDS011;17386;43.846;25.950;2023-08-06T06:12:18;3.63;;;1.45;;
20629;SDS011;17386;43.846;25.950;2023-08-06T06:14:43;4.72;;;1.83;;
20629;SDS011;17386;43.846;25.950;2023-08-06T06:17:08;4.05;;;2.05;;
20629;SDS011;17386;43.846;25.950;2023-08-06T06:19:35;4.57;;;1.45;;
20629;SDS011;17386;43.846;25.950;2023-08-06T06:22:00;4.60;;;1.95;;
20629;SDS011;17386;43.846;25.950;2023-08-06T06:24:26;7.47;;;2.15;;
20629;SDS011;17386;43.846;25.950;2023-08-06T06:26:51;17.05;;;2.80;;
20629;SDS011;17386;43.846;25.950;2023-08-06T06:29:18;12.15;;;2.13;;
20629;SDS011;17386;43.846;25.950;2023-08-06T06:31:43;3.05;;;1.70;;
20629;SDS011;17386;43.846;25.950;2023-08-06T06:34:08;1.95;;;1.35;;
20629;SDS011;17386;43.846;25.950;2023-08-06T06:36:34;3.83;;;1.58;;
20629;SDS011;17386;43.846;25.950;2023-08-06T06:38:59;3.22;;;1.60;;
20629;SDS011;17386;43.846;25.950;2023-08-06T06:41:26;3.88;;;1.75;;
20629;SDS011;17386;43.846;25.950;2023-08-06T06:43:52;3.38;;;1.73;;
20629;SDS011;17386;43.846;25.950;2023-08-06T06:46:17;2.05;;;1.50;;
20629;SDS011;17386;43.846;25.950;2023-08-06T06:48:44;8.63;;;2.13;;
20629;SDS011;17386;43.846;25.950;2023-08-06T06:51:09;7.93;;;1.80;;
20629;SDS011;17386;43.846;25.950;2023-08-06T06:53:34;5.43;;;1.67;;
20629;SDS011;17386;43.846;25.950;2023-08-06T06:56:04;4.63;;;1.40;;
20629;SDS011;17386;43.846;25.950;2023-08-06T06:58:30;3.53;;;1.52;;
20629;SDS011;17386;43.846;25.950;2023-08-06T07:00:58;5.13;;;1.50;;
20629;SDS011;17386;43.846;25.950;2023-08-06T07:03:25;3.05;;;1.98;;
20629;SDS011;17386;43.846;25.950;2023-08-06T07:05:56;3.13;;;1.92;;
20629;SDS011;17386;43.846;25.950;2023-08-06T07:08:25;10.15;;;2.10;;
20629;SDS011;17386;43.846;25.950;2023-08-06T07:10:59;2.85;;;1.75;;
20629;SDS011;17386;43.846;25.950;2023-08-06T07:13:28;5.00;;;2.22;;
20629;SDS011;17386;43.846;25.950;2023-08-06T07:18:22;7.45;;;1.80;;
20629;SDS011;17386;43.846;25.950;2023-08-06T07:20:49;4.97;;;2.30;;
20629;SDS011;17386;43.846;25.950;2023-08-06T07:23:20;5.20;;;2.28;;
20629;SDS011;17386;43.846;25.950;2023-08-06T07:25:48;8.13;;;1.92;;
20629;SDS011;17386;43.846;25.950;2023-08-06T07:28:15;55.35;;;5.38;;
20629;SDS011;17386;43.846;25.950;2023-08-06T07:30:43;3.80;;;2.08;;
20629;SDS011;17386;43.846;25.950;2023-08-06T07:33:09;2.55;;;1.55;;
20629;SDS011;17386;43.846;25.950;2023-08-06T07:35:35;2.63;;;1.88;;
20629;SDS011;17386;43.846;25.950;2023-08-06T07:38:02;11.30;;;3.83;;
20629;SDS011;17386;43.846;25.950;2023-08-06T07:40:29;4.88;;;2.13;;
20629;SDS011;17386;43.846;25.950;2023-08-06T07:42:55;5.22;;;1.80;;
20629;SDS011;17386;43.846;25.950;2023-08-06T07:45:21;3.03;;;2.10;;
20629;SDS011;17386;43.846;25.950;2023-08-06T07:47:47;3.70;;;1.52;;
20629;SDS011;17386;43.846;25.950;2023-08-06T07:50:13;3.95;;;2.10;;
20629;SDS011;17386;43.846;25.950;2023-08-06T07:52:39;3.45;;;1.90;;
20629;SDS011;17386;43.846;25.950;2023-08-06T07:55:06;42.10;;;4.60;;
20629;SDS011;17386;43.846;25.950;2023-08-06T07:57:32;5.18;;;1.90;;
20629;SDS011;17386;43.846;25.950;2023-08-06T07:59:59;4.57;;;1.73;;
20629;SDS011;17386;43.846;25.950;2023-08-06T08:02:29;15.18;;;2.50;;
20629;SDS011;17386;43.846;25.950;2023-08-06T08:04:55;22.92;;;3.10;;
20629;SDS011;17386;43.846;25.950;2023-08-06T08:07:20;8.40;;;1.98;;
20629;SDS011;17386;43.846;25.950;2023-08-06T08:09:46;30.00;;;3.53;;
20629;SDS011;17386;43.846;25.950;2023-08-06T08:14:38;5.87;;;1.80;;
20629;SDS011;17386;43.846;25.950;2023-08-06T08:17:04;14.38;;;2.33;;
20629;SDS011;17386;43.846;25.950;2023-08-06T08:19:30;9.50;;;2.10;;
20629;SDS011;17386;43.846;25.950;2023-08-06T08:21:56;2.78;;;2.03;;
20629;SDS011;17386;43.846;25.950;2023-08-06T08:24:22;4.60;;;2.00;;
20629;SDS011;17386;43.846;25.950;2023-08-06T08:26:49;21.55;;;3.22;;
20629;SDS011;17386;43.846;25.950;2023-08-06T08:29:15;6.78;;;2.63;;
20629;SDS011;17386;43.846;25.950;2023-08-06T08:31:41;15.88;;;2.80;;
20629;SDS011;17386;43.846;25.950;2023-08-06T08:34:06;4.55;;;2.97;;
20629;SDS011;17386;43.846;25.950;2023-08-06T08:36:32;20.35;;;2.95;;
20629;SDS011;17386;43.846;25.950;2023-08-06T08:38:57;4.47;;;1.63;;
20629;SDS011;17386;43.846;25.950;2023-08-06T08:41:23;6.45;;;2.03;;
20629;SDS011;17386;43.846;25.950;2023-08-06T08:43:49;4.07;;;2.22;;
20629;SDS011;17386;43.846;25.950;2023-08-06T08:46:19;3.35;;;2.00;;
20629;SDS011;17386;43.846;25.950;2023-08-06T08:48:44;3.60;;;1.80;;
20629;SDS011;17386;43.846;25.950;2023-08-06T08:51:11;6.60;;;1.67;;
20629;SDS011;17386;43.846;25.950;2023-08-06T08:53:38;3.05;;;1.88;;
20629;SDS011;17386;43.846;25.950;2023-08-06T08:56:04;3.40;;;2.25;;
20629;SDS011;17386;43.846;25.950;2023-08-06T08:58:30;3.03;;;2.40;;
20629;SDS011;17386;43.846;25.950;2023-08-06T09:00:56;8.15;;;2.95;;
20629;SDS011;17386;43.846;25.950;2023-08-06T09:03:22;4.93;;;3.03;;
20629;SDS011;17386;43.846;25.950;2023-08-06T09:05:49;4.50;;;3.00;;
20629;SDS011;17386;43.846;25.950;2023-08-06T09:08:18;28.58;;;4.28;;
20629;SDS011;17386;43.846;25.950;2023-08-06T09:10:47;5.03;;;2.97;;
20629;SDS011;17386;43.846;25.950;2023-08-06T09:13:13;4.93;;;3.15;;
20629;SDS011;17386;43.846;25.950;2023-08-06T09:15:39;5.40;;;3.13;;
20629;SDS011;17386;43.846;25.950;2023-08-06T09:18:10;4.35;;;2.92;;
20629;SDS011;17386;43.846;25.950;2023-08-06T09:20:37;5.25;;;2.80;;
20629;SDS011;17386;43.846;25.950;2023-08-06T09:23:07;7.13;;;3.55;;
20629;SDS011;17386;43.846;25.950;2023-08-06T09:25:36;5.20;;;3.20;;
20629;SDS011;17386;43.846;25.950;2023-08-06T09:28:03;11.57;;;6.07;;
20629;SDS011;17386;43.846;25.950;2023-08-06T09:30:32;8.13;;;4.53;;
20629;SDS011;17386;43.846;25.950;2023-08-06T09:32:59;23.52;;;5.30;;
20629;SDS011;17386;43.846;25.950;2023-08-06T09:35:25;8.60;;;5.40;;
20629;SDS011;17386;43.846;25.950;2023-08-06T09:37:55;8.57;;;4.82;;
20629;SDS011;17386;43.846;25.950;2023-08-06T09:40:38;7.90;;;4.70;;
20629;SDS011;17386;43.846;25.950;2023-08-06T09:43:04;9.10;;;5.25;;
20629;SDS011;17386;43.846;25.950;2023-08-06T09:45:33;9.68;;;5.57;;
20629;SDS011;17386;43.846;25.950;2023-08-06T09:48:01;10.02;;;5.32;;
20629;SDS011;17386;43.846;25.950;2023-08-06T09:50:30;8.35;;;5.18;;
20629;SDS011;17386;43.846;25.950;2023-08-06T09:52:57;8.90;;;5.60;;
20629;SDS011;17386;43.846;25.950;2023-08-06T09:55:23;14.13;;;6.47;;
20629;SDS011;17386;43.846;25.950;2023-08-06T10:00:15;6.95;;;5.47;;
20629;SDS011;17386;43.846;25.950;2023-08-06T10:02:41;16.17;;;5.28;;
20629;SDS011;17386;43.846;25.950;2023-08-06T10:05:08;8.27;;;4.95;;
20629;SDS011;17386;43.846;25.950;2023-08-06T10:07:34;9.23;;;5.32;;
20629;SDS011;17386;43.846;25.950;2023-08-06T10:10:00;13.27;;;8.18;;
20629;SDS011;17386;43.846;25.950;2023-08-06T10:12:26;8.45;;;5.80;;
20629;SDS011;17386;43.846;25.950;2023-08-06T10:14:55;7.22;;;4.82;;
20629;SDS011;17386;43.846;25.950;2023-08-06T10:17:24;7.97;;;4.38;;
20629;SDS011;17386;43.846;25.950;2023-08-06T10:19:52;8.73;;;4.15;;
20629;SDS011;17386;43.846;25.950;2023-08-06T10:22:20;10.07;;;3.90;;
20629;SDS011;17386;43.846;25.950;2023-08-06T10:24:58;8.48;;;4.15;;
20629;SDS011;17386;43.846;25.950;2023-08-06T10:27:34;9.68;;;4.32;;
20629;SDS011;17386;43.846;25.950;2023-08-06T10:32:53;9.88;;;4.70;;
20629;SDS011;17386;43.846;25.950;2023-08-06T10:35:29;11.25;;;5.30;;
20629;SDS011;17386;43.846;25.950;2023-08-06T10:38:00;6.80;;;4.47;;
20629;SDS011;17386;43.846;25.950;2023-08-06T10:40:29;10.32;;;5.80;;
20629;SDS011;17386;43.846;25.950;2023-08-06T10:42:58;12.32;;;5.13;;
20629;SDS011;17386;43.846;25.950;2023-08-06T10:45:26;8.60;;;4.63;;
20629;SDS011;17386;43.846;25.950;2023-08-06T10:47:55;12.98;;;5.57;;
20629;SDS011;17386;43.846;25.950;2023-08-06T10:50:24;16.67;;;5.03;;
20629;SDS011;17386;43.846;25.950;2023-08-06T10:52:50;13.40;;;5.78;;
20629;SDS011;17386;43.846;25.950;2023-08-06T10:55:25;12.60;;;5.38;;
20629;SDS011;17386;43.846;25.950;2023-08-06T10:57:52;10.55;;;5.15;;
20629;SDS011;17386;43.846;25.950;2023-08-06T11:00:18;8.30;;;4.25;;
20629;SDS011;17386;43.846;25.950;2023-08-06T11:02:47;23.77;;;8.02;;
20629;SDS011;17386;43.846;25.950;2023-08-06T11:05:14;9.90;;;4.25;;
20629;SDS011;17386;43.846;25.950;2023-08-06T11:07:39;7.53;;;3.83;;
20629;SDS011;17386;43.846;25.950;2023-08-06T11:10:08;7.60;;;4.38;;
20629;SDS011;17386;43.846;25.950;2023-08-06T11:12:35;7.50;;;4.45;;
20629;SDS011;17386;43.846;25.950;2023-08-06T11:15:01;6.22;;;3.80;;
20629;SDS011;17386;43.846;25.950;2023-08-06T11:17:28;9.65;;;4.70;;
20629;SDS011;17386;43.846;25.950;2023-08-06T11:19:54;11.05;;;4.88;;
20629;SDS011;17386;43.846;25.950;2023-08-06T11:22:21;6.20;;;4.05;;
20629;SDS011;17386;43.846;25.950;2023-08-06T11:24:47;5.82;;;3.83;;
20629;SDS011;17386;43.846;25.950;2023-08-06T11:27:13;9.88;;;4.72;;
20629;SDS011;17386;43.846;25.950;2023-08-06T11:29:40;12.43;;;5.25;;
20629;SDS011;17386;43.846;25.950;2023-08-06T11:34:32;6.28;;;4.20;;
20629;SDS011;17386;43.846;25.950;2023-08-06T11:36:57;7.45;;;4.57;;
20629;SDS011;17386;43.846;25.950;2023-08-06T11:39:23;9.07;;;4.93;;
20629;SDS011;17386;43.846;25.950;2023-08-06T11:41:49;10.77;;;5.10;;
20629;SDS011;17386;43.846;25.950;2023-08-06T11:44:14;11.35;;;5.25;;
20629;SDS011;17386;43.846;25.950;2023-08-06T11:46:50;8.13;;;5.45;;
20629;SDS011;17386;43.846;25.950;2023-08-06T11:49:21;10.05;;;6.13;;
20629;SDS011;17386;43.846;25.950;2023-08-06T11:52:07;8.65;;;5.47;;
20629;SDS011;17386;43.846;25.950;2023-08-06T11:54:37;7.70;;;4.85;;
20629;SDS011;17386;43.846;25.950;2023-08-06T11:57:04;6.97;;;5.40;;
20629;SDS011;17386;43.846;25.950;2023-08-06T11:59:30;7.20;;;5.50;;
20629;SDS011;17386;43.846;25.950;2023-08-06T12:01:56;8.05;;;5.30;;
20629;SDS011;17386;43.846;25.950;2023-08-06T12:04:21;8.63;;;5.80;;
20629;SDS011;17386;43.846;25.950;2023-08-06T12:06:47;7.45;;;5.30;;
20629;SDS011;17386;43.846;25.950;2023-08-06T12:09:12;8.52;;;4.97;;
20629;SDS011;17386;43.846;25.950;2023-08-06T12:11:37;9.43;;;5.00;;
20629;SDS011;17386;43.846;25.950;2023-08-06T12:14:03;6.97;;;4.75;;
20629;SDS011;17386;43.846;25.950;2023-08-06T12:16:28;7.57;;;4.75;;
20629;SDS011;17386;43.846;25.950;2023-08-06T12:18:53;7.00;;;4.65;;
20629;SDS011;17386;43.846;25.950;2023-08-06T12:21:19;7.80;;;5.07;;
20629;SDS011;17386;43.846;25.950;2023-08-06T12:23:44;8.35;;;5.10;;
20629;SDS011;17386;43.846;25.950;2023-08-06T12:26:10;6.10;;;4.43;;
20629;SDS011;17386;43.846;25.950;2023-08-06T12:28:35;5.72;;;3.72;;
20629;SDS011;17386;43.846;25.950;2023-08-06T12:31:01;6.82;;;3.63;;
20629;SDS011;17386;43.846;25.950;2023-08-06T12:33:26;8.32;;;4.28;;
20629;SDS011;17386;43.846;25.950;2023-08-06T12:35:52;7.90;;;3.92;;
20629;SDS011;17386;43.846;25.950;2023-08-06T12:38:19;5.25;;;4.10;;
20629;SDS011;17386;43.846;25.950;2023-08-06T12:40:45;5.97;;;4.18;;
20629;SDS011;17386;43.846;25.950;2023-08-06T12:43:30;6.75;;;4.00;;
20629;SDS011;17386;43.846;25.950;2023-08-06T12:45:58;5.63;;;3.85;;
20629;SDS011;17386;43.846;25.950;2023-08-06T12:48:23;6.90;;;4.07;;
20629;SDS011;17386;43.846;25.950;2023-08-06T12:50:49;5.32;;;3.78;;
20629;SDS011;17386;43.846;25.950;2023-08-06T12:53:14;7.10;;;3.88;;
20629;SDS011;17386;43.846;25.950;2023-08-06T12:55:39;6.07;;;3.80;;
20629;SDS011;17386;43.846;25.950;2023-08-06T12:58:05;6.22;;;3.65;;
20629;SDS011;17386;43.846;25.950;2023-08-06T13:00:31;4.78;;;3.67;;
20629;SDS011;17386;43.846;25.950;2023-08-06T13:02:57;7.03;;;4.13;;
20629;SDS011;17386;43.846;25.950;2023-08-06T13:05:23;5.18;;;3.72;;
20629;SDS011;17386;43.846;25.950;2023-08-06T13:07:48;4.53;;;3.53;;
20629;SDS011;17386;43.846;25.950;2023-08-06T13:10:13;8.30;;;3.67;;
20629;SDS011;17386;43.846;25.950;2023-08-06T13:12:39;7.68;;;3.92;;
20629;SDS011;17386;43.846;25.950;2023-08-06T13:15:04;5.30;;;4.00;;
20629;SDS011;17386;43.846;25.950;2023-08-06T13:17:30;5.03;;;3.67;;
20629;SDS011;17386;43.846;25.950;2023-08-06T13:19:55;11.98;;;4.22;;
20629;SDS011;17386;43.846;25.950;2023-08-06T13:22:21;4.32;;;3.38;;
20629;SDS011;17386;43.846;25.950;2023-08-06T13:24:46;4.30;;;3.15;;
20629;SDS011;17386;43.846;25.950;2023-08-06T13:27:12;17.40;;;4.30;;
20629;SDS011;17386;43.846;25.950;2023-08-06T13:29:37;4.47;;;2.88;;
20629;SDS011;17386;43.846;25.950;2023-08-06T13:32:02;5.28;;;3.08;;
20629;SDS011;17386;43.846;25.950;2023-08-06T13:34:28;3.60;;;2.67;;
20629;SDS011;17386;43.846;25.950;2023-08-06T13:36:53;5.72;;;3.20;;
20629;SDS011;17386;43.846;25.950;2023-08-06T13:39:19;8.85;;;3.72;;
20629;SDS011;17386;43.846;25.950;2023-08-06T13:41:44;6.55;;;4.00;;
20629;SDS011;17386;43.846;25.950;2023-08-06T13:44:10;5.05;;;3.03;;
20629;SDS011;17386;43.846;25.950;2023-08-06T13:46:36;4.03;;;3.22;;
20629;SDS011;17386;43.846;25.950;2023-08-06T13:49:01;11.25;;;3.00;;
20629;SDS011;17386;43.846;25.950;2023-08-06T13:51:26;6.15;;;3.22;;
20629;SDS011;17386;43.846;25.950;2023-08-06T13:53:52;6.43;;;3.47;;
20629;SDS011;17386;43.846;25.950;2023-08-06T13:56:19;8.13;;;3.15;;
20629;SDS011;17386;43.846;25.950;2023-08-06T13:58:44;3.85;;;2.80;;
20629;SDS011;17386;43.846;25.950;2023-08-06T14:01:10;5.45;;;3.20;;
20629;SDS011;17386;43.846;25.950;2023-08-06T14:03:36;7.07;;;3.33;;
20629;SDS011;17386;43.846;25.950;2023-08-06T14:06:04;4.93;;;3.05;;
20629;SDS011;17386;43.846;25.950;2023-08-06T14:08:30;8.30;;;4.38;;
20629;SDS011;17386;43.846;25.950;2023-08-06T14:10:55;4.60;;;3.05;;
20629;SDS011;17386;43.846;25.950;2023-08-06T14:13:21;5.10;;;3.13;;
20629;SDS011;17386;43.846;25.950;2023-08-06T14:15:47;10.65;;;3.38;;
20629;SDS011;17386;43.846;25.950;2023-08-06T14:18:13;3.20;;;2.40;;
20629;SDS011;17386;43.846;25.950;2023-08-06T14:23:05;8.68;;;3.00;;
20629;SDS011;17386;43.846;25.950;2023-08-06T14:25:31;11.90;;;3.33;;
20629;SDS011;17386;43.846;25.950;2023-08-06T14:27:56;4.55;;;2.35;;
20629;SDS011;17386;43.846;25.950;2023-08-06T14:30:22;8.43;;;2.75;;
20629;SDS011;17386;43.846;25.950;2023-08-06T14:32:47;7.50;;;2.33;;
20629;SDS011;17386;43.846;25.950;2023-08-06T14:35:13;2.75;;;2.15;;
20629;SDS011;17386;43.846;25.950;2023-08-06T14:37:38;4.57;;;2.10;;
20629;SDS011;17386;43.846;25.950;2023-08-06T14:40:06;4.80;;;2.50;;
20629;SDS011;17386;43.846;25.950;2023-08-06T14:42:32;3.75;;;2.60;;
20629;SDS011;17386;43.846;25.950;2023-08-06T14:45:00;7.22;;;2.60;;
20629;SDS011;17386;43.846;25.950;2023-08-06T14:47:25;3.67;;;2.28;;
20629;SDS011;17386;43.846;25.950;2023-08-06T14:49:50;35.40;;;4.72;;
20629;SDS011;17386;43.846;25.950;2023-08-06T14:52:16;6.28;;;2.47;;
20629;SDS011;17386;43.846;25.950;2023-08-06T14:54:41;3.22;;;2.38;;
20629;SDS011;17386;43.846;25.950;2023-08-06T14:57:07;3.25;;;2.03;;
20629;SDS011;17386;43.846;25.950;2023-08-06T14:59:33;6.07;;;2.30;;
20629;SDS011;17386;43.846;25.950;2023-08-06T15:01:58;4.47;;;2.25;;